sensor_id;sensor_type;location;lat;lon;timestamp;temperature;humidity
20590;DHT22;10453;50.810;12.540;2022-11-06T00:00:31;5.40;99.90
20590;DHT22;10453;50.810;12.540;2022-11-06T00:04:48;5.50;99.90
20590;DHT22;10453;50.810;12.540;2022-11-06T00:09:07;5.50;99.90
20590;DHT22;10453;50.810;12.540;2022-11-06T00:13:25;5.50;99.90
20590;DHT22;10453;50.810;12.540;2022-11-06T00:17:42;5.50;99.90
20590;DHT22;10453;50.810;12.540;2022-11-06T00:21:59;5.40;99.90
20590;DHT22;10453;50.810;12.540;2022-11-06T00:26:19;5.60;99.90
20590;DHT22;10453;50.810;12.540;2022-11-06T00:30:37;5.60;99.90
20590;DHT22;10453;50.810;12.540;2022-11-06T00:34:55;5.70;99.90
20590;DHT22;10453;50.810;12.540;2022-11-06T00:39:12;5.70;99.90
20590;DHT22;10453;50.810;12.540;2022-11-06T00:43:30;5.80;99.90
20590;DHT22;10453;50.810;12.540;2022-11-06T00:47:49;5.80;99.90
20590;DHT22;10453;50.810;12.540;2022-11-06T00:52:06;5.80;99.90
20590;DHT22;10453;50.810;12.540;2022-11-06T00:56:24;5.80;99.90
20590;DHT22;10453;50.810;12.540;2022-11-06T01:00:41;5.80;99.90
20590;DHT22;10453;50.810;12.540;2022-11-06T01:04:58;5.70;99.90
20590;DHT22;10453;50.810;12.540;2022-11-06T01:09:18;5.50;99.90
20590;DHT22;10453;50.810;12.540;2022-11-06T01:13:36;5.20;99.90
20590;DHT22;10453;50.810;12.540;2022-11-06T01:17:54;5.10;99.90
20590;DHT22;10453;50.810;12.540;2022-11-06T01:22:11;4.90;99.90
20590;DHT22;10453;50.810;12.540;2022-11-06T01:26:29;4.70;99.90
20590;DHT22;10453;50.810;12.540;2022-11-06T01:30:55;4.40;99.90
20590;DHT22;10453;50.810;12.540;2022-11-06T01:35:13;4.40;99.90
20590;DHT22;10453;50.810;12.540;2022-11-06T01:39:30;4.40;99.90
20590;DHT22;10453;50.810;12.540;2022-11-06T01:43:49;4.50;99.90
20590;DHT22;10453;50.810;12.540;2022-11-06T01:48:07;4.50;99.90
20590;DHT22;10453;50.810;12.540;2022-11-06T01:52:26;4.50;99.90
20590;DHT22;10453;50.810;12.540;2022-11-06T01:56:46;4.70;99.90
20590;DHT22;10453;50.810;12.540;2022-11-06T02:01:06;4.80;99.90
20590;DHT22;10453;50.810;12.540;2022-11-06T02:05:24;5.00;99.90
20590;DHT22;10453;50.810;12.540;2022-11-06T02:09:41;4.90;99.90
20590;DHT22;10453;50.810;12.540;2022-11-06T02:14:10;4.90;99.90
20590;DHT22;10453;50.810;12.540;2022-11-06T02:18:49;5.00;99.90
20590;DHT22;10453;50.810;12.540;2022-11-06T02:23:35;5.10;99.90
20590;DHT22;10453;50.810;12.540;2022-11-06T02:28:08;5.00;99.90
20590;DHT22;10453;50.810;12.540;2022-11-06T02:32:33;5.10;99.90
20590;DHT22;10453;50.810;12.540;2022-11-06T02:37:00;5.00;99.90
20590;DHT22;10453;50.810;12.540;2022-11-06T02:41:21;5.00;99.90
20590;DHT22;10453;50.810;12.540;2022-11-06T02:50:29;4.50;99.90
20590;DHT22;10453;50.810;12.540;2022-11-06T02:54:56;4.20;99.90
20590;DHT22;10453;50.810;12.540;2022-11-06T02:59:19;4.20;99.90
20590;DHT22;10453;50.810;12.540;2022-11-06T03:03:40;4.20;99.90
20590;DHT22;10453;50.810;12.540;2022-11-06T03:08:29;4.00;99.90
20590;DHT22;10453;50.810;12.540;2022-11-06T03:12:54;3.90;99.90
20590;DHT22;10453;50.810;12.540;2022-11-06T03:17:54;3.80;99.90
20590;DHT22;10453;50.810;12.540;2022-11-06T03:22:27;3.70;99.90
20590;DHT22;10453;50.810;12.540;2022-11-06T03:26:48;3.60;99.90
20590;DHT22;10453;50.810;12.540;2022-11-06T03:31:10;3.70;99.90
20590;DHT22;10453;50.810;12.540;2022-11-06T03:36:18;4.30;99.90
20590;DHT22;10453;50.810;12.540;2022-11-06T03:40:19;4.60;99.90
20590;DHT22;10453;50.810;12.540;2022-11-06T03:44:40;4.60;99.90
20590;DHT22;10453;50.810;12.540;2022-11-06T03:49:02;4.60;99.90
20590;DHT22;10453;50.810;12.540;2022-11-06T03:53:27;4.60;99.90
20590;DHT22;10453;50.810;12.540;2022-11-06T03:57:56;4.80;99.90
20590;DHT22;10453;50.810;12.540;2022-11-06T04:02:14;5.00;99.90
20590;DHT22;10453;50.810;12.540;2022-11-06T04:07:19;4.90;99.90
20590;DHT22;10453;50.810;12.540;2022-11-06T04:11:33;4.90;99.90
20590;DHT22;10453;50.810;12.540;2022-11-06T04:16:10;5.00;99.90
20590;DHT22;10453;50.810;12.540;2022-11-06T04:20:30;4.90;99.90
20590;DHT22;10453;50.810;12.540;2022-11-06T04:25:14;4.60;99.90
20590;DHT22;10453;50.810;12.540;2022-11-06T04:34:45;4.00;99.90
20590;DHT22;10453;50.810;12.540;2022-11-06T04:39:28;3.80;99.90
20590;DHT22;10453;50.810;12.540;2022-11-06T04:43:57;3.50;99.90
20590;DHT22;10453;50.810;12.540;2022-11-06T04:48:16;3.50;99.90
20590;DHT22;10453;50.810;12.540;2022-11-06T04:52:36;3.60;99.90
20590;DHT22;10453;50.810;12.540;2022-11-06T04:57:00;3.90;99.90
20590;DHT22;10453;50.810;12.540;2022-11-06T05:01:18;4.20;99.90
20590;DHT22;10453;50.810;12.540;2022-11-06T05:05:36;4.30;99.90
20590;DHT22;10453;50.810;12.540;2022-11-06T05:09:53;4.10;99.90
20590;DHT22;10453;50.810;12.540;2022-11-06T05:14:10;3.80;99.90
20590;DHT22;10453;50.810;12.540;2022-11-06T05:18:27;3.70;99.90
20590;DHT22;10453;50.810;12.540;2022-11-06T05:22:44;3.90;99.90
20590;DHT22;10453;50.810;12.540;2022-11-06T05:27:14;4.00;99.90
20590;DHT22;10453;50.810;12.540;2022-11-06T05:31:31;4.40;99.90
20590;DHT22;10453;50.810;12.540;2022-11-06T05:35:49;4.50;99.90
20590;DHT22;10453;50.810;12.540;2022-11-06T05:40:07;4.60;99.90
20590;DHT22;10453;50.810;12.540;2022-11-06T05:44:24;4.80;99.90
20590;DHT22;10453;50.810;12.540;2022-11-06T05:48:41;4.90;99.90
20590;DHT22;10453;50.810;12.540;2022-11-06T05:52:59;4.90;99.90
20590;DHT22;10453;50.810;12.540;2022-11-06T05:57:16;4.90;99.90
20590;DHT22;10453;50.810;12.540;2022-11-06T06:01:34;4.70;99.90
20590;DHT22;10453;50.810;12.540;2022-11-06T06:05:52;4.30;99.90
20590;DHT22;10453;50.810;12.540;2022-11-06T06:10:09;3.90;99.90
20590;DHT22;10453;50.810;12.540;2022-11-06T06:14:27;3.80;99.90
20590;DHT22;10453;50.810;12.540;2022-11-06T06:18:48;3.70;99.90
20590;DHT22;10453;50.810;12.540;2022-11-06T06:23:06;4.00;99.90
20590;DHT22;10453;50.810;12.540;2022-11-06T06:27:25;4.30;99.90
20590;DHT22;10453;50.810;12.540;2022-11-06T06:31:43;4.40;99.90
20590;DHT22;10453;50.810;12.540;2022-11-06T06:36:05;4.60;99.90
20590;DHT22;10453;50.810;12.540;2022-11-06T06:40:22;4.70;99.90
20590;DHT22;10453;50.810;12.540;2022-11-06T06:44:39;4.80;99.90
20590;DHT22;10453;50.810;12.540;2022-11-06T06:48:57;4.80;99.90
20590;DHT22;10453;50.810;12.540;2022-11-06T06:53:14;4.90;99.90
20590;DHT22;10453;50.810;12.540;2022-11-06T06:57:31;4.90;99.90
20590;DHT22;10453;50.810;12.540;2022-11-06T07:01:48;4.90;99.90
20590;DHT22;10453;50.810;12.540;2022-11-06T07:06:06;4.90;99.90
20590;DHT22;10453;50.810;12.540;2022-11-06T07:10:24;4.90;99.90
20590;DHT22;10453;50.810;12.540;2022-11-06T07:14:41;5.00;99.90
20590;DHT22;10453;50.810;12.540;2022-11-06T07:18:58;5.10;99.90
20590;DHT22;10453;50.810;12.540;2022-11-06T07:23:15;5.00;99.90
20590;DHT22;10453;50.810;12.540;2022-11-06T07:27:33;5.30;99.90
20590;DHT22;10453;50.810;12.540;2022-11-06T07:31:50;5.40;99.90
20590;DHT22;10453;50.810;12.540;2022-11-06T07:36:10;5.50;99.90
20590;DHT22;10453;50.810;12.540;2022-11-06T07:40:27;5.60;99.90
20590;DHT22;10453;50.810;12.540;2022-11-06T07:44:44;5.70;99.90
20590;DHT22;10453;50.810;12.540;2022-11-06T07:49:02;5.90;99.90
20590;DHT22;10453;50.810;12.540;2022-11-06T07:53:19;6.00;99.90
20590;DHT22;10453;50.810;12.540;2022-11-06T07:57:37;6.20;99.90
20590;DHT22;10453;50.810;12.540;2022-11-06T08:01:54;6.40;99.90
20590;DHT22;10453;50.810;12.540;2022-11-06T08:06:12;6.70;99.90
20590;DHT22;10453;50.810;12.540;2022-11-06T08:10:29;6.70;99.90
20590;DHT22;10453;50.810;12.540;2022-11-06T08:14:46;7.10;99.90
20590;DHT22;10453;50.810;12.540;2022-11-06T08:19:03;7.20;99.90
20590;DHT22;10453;50.810;12.540;2022-11-06T08:23:21;7.40;99.90
20590;DHT22;10453;50.810;12.540;2022-11-06T08:27:38;7.60;99.90
20590;DHT22;10453;50.810;12.540;2022-11-06T08:31:55;7.60;99.90
20590;DHT22;10453;50.810;12.540;2022-11-06T08:36:12;7.90;99.90
20590;DHT22;10453;50.810;12.540;2022-11-06T08:40:30;8.10;99.90
20590;DHT22;10453;50.810;12.540;2022-11-06T08:44:47;8.30;99.90
20590;DHT22;10453;50.810;12.540;2022-11-06T08:49:05;8.50;99.90
20590;DHT22;10453;50.810;12.540;2022-11-06T08:53:22;8.50;99.90
20590;DHT22;10453;50.810;12.540;2022-11-06T08:57:39;8.80;99.90
20590;DHT22;10453;50.810;12.540;2022-11-06T09:01:56;9.00;99.90
20590;DHT22;10453;50.810;12.540;2022-11-06T09:06:14;9.20;99.90
20590;DHT22;10453;50.810;12.540;2022-11-06T09:10:31;9.40;99.90
20590;DHT22;10453;50.810;12.540;2022-11-06T09:14:48;9.50;99.90
20590;DHT22;10453;50.810;12.540;2022-11-06T09:19:06;9.60;99.90
20590;DHT22;10453;50.810;12.540;2022-11-06T09:23:23;9.60;99.90
20590;DHT22;10453;50.810;12.540;2022-11-06T09:27:46;9.80;99.90
20590;DHT22;10453;50.810;12.540;2022-11-06T09:32:04;10.00;99.90
20590;DHT22;10453;50.810;12.540;2022-11-06T09:36:21;10.20;99.90
20590;DHT22;10453;50.810;12.540;2022-11-06T09:41:00;10.40;99.90
20590;DHT22;10453;50.810;12.540;2022-11-06T09:45:19;10.60;99.90
20590;DHT22;10453;50.810;12.540;2022-11-06T09:49:47;10.80;99.90
20590;DHT22;10453;50.810;12.540;2022-11-06T09:58:34;10.80;99.90
20590;DHT22;10453;50.810;12.540;2022-11-06T10:02:52;11.00;99.90
20590;DHT22;10453;50.810;12.540;2022-11-06T10:07:32;11.00;99.90
20590;DHT22;10453;50.810;12.540;2022-11-06T10:34:28;12.10;99.90
20590;DHT22;10453;50.810;12.540;2022-11-06T10:38:47;12.90;99.90
20590;DHT22;10453;50.810;12.540;2022-11-06T10:43:34;13.10;99.90
20590;DHT22;10453;50.810;12.540;2022-11-06T10:47:55;12.70;99.90
20590;DHT22;10453;50.810;12.540;2022-11-06T10:57:17;13.40;99.90
20590;DHT22;10453;50.810;12.540;2022-11-06T11:01:38;12.20;99.90
20590;DHT22;10453;50.810;12.540;2022-11-06T11:05:56;11.60;99.90
20590;DHT22;10453;50.810;12.540;2022-11-06T11:10:26;11.40;99.90
20590;DHT22;10453;50.810;12.540;2022-11-06T11:14:44;11.40;99.90
20590;DHT22;10453;50.810;12.540;2022-11-06T11:23:41;11.40;99.90
20590;DHT22;10453;50.810;12.540;2022-11-06T11:27:58;11.50;99.90
20590;DHT22;10453;50.810;12.540;2022-11-06T11:32:21;11.50;99.90
20590;DHT22;10453;50.810;12.540;2022-11-06T11:36:49;11.80;99.90
20590;DHT22;10453;50.810;12.540;2022-11-06T11:45:36;13.40;99.90
20590;DHT22;10453;50.810;12.540;2022-11-06T11:49:53;13.90;99.90
20590;DHT22;10453;50.810;12.540;2022-11-06T11:58:28;14.10;99.90
20590;DHT22;10453;50.810;12.540;2022-11-06T12:02:56;14.30;99.90
20590;DHT22;10453;50.810;12.540;2022-11-06T12:07:35;14.30;98.70
20590;DHT22;10453;50.810;12.540;2022-11-06T12:12:01;14.20;97.80
20590;DHT22;10453;50.810;12.540;2022-11-06T12:16:19;13.70;97.20
20590;DHT22;10453;50.810;12.540;2022-11-06T12:21:03;14.00;99.90
20590;DHT22;10453;50.810;12.540;2022-11-06T12:25:22;14.00;97.80
20590;DHT22;10453;50.810;12.540;2022-11-06T12:34:26;12.40;99.90
20590;DHT22;10453;50.810;12.540;2022-11-06T12:38:56;11.90;99.90
20590;DHT22;10453;50.810;12.540;2022-11-06T12:43:43;11.60;99.90
20590;DHT22;10453;50.810;12.540;2022-11-06T12:48:23;11.30;99.90
20590;DHT22;10453;50.810;12.540;2022-11-06T12:53:08;11.40;99.90
20590;DHT22;10453;50.810;12.540;2022-11-06T13:02:32;11.30;99.90
20590;DHT22;10453;50.810;12.540;2022-11-06T13:20:33;11.00;99.90
20590;DHT22;10453;50.810;12.540;2022-11-06T13:29:35;11.00;99.90
20590;DHT22;10453;50.810;12.540;2022-11-06T13:33:53;11.10;99.90
20590;DHT22;10453;50.810;12.540;2022-11-06T13:38:14;11.10;99.90
20590;DHT22;10453;50.810;12.540;2022-11-06T13:42:40;11.00;99.90
20590;DHT22;10453;50.810;12.540;2022-11-06T13:47:13;11.00;99.90
20590;DHT22;10453;50.810;12.540;2022-11-06T13:51:56;11.00;99.90
20590;DHT22;10453;50.810;12.540;2022-11-06T13:56:26;10.90;99.90
20590;DHT22;10453;50.810;12.540;2022-11-06T14:10:23;10.80;99.90
20590;DHT22;10453;50.810;12.540;2022-11-06T14:14:42;10.80;99.90
20590;DHT22;10453;50.810;12.540;2022-11-06T14:19:03;10.70;99.90
20590;DHT22;10453;50.810;12.540;2022-11-06T14:32:08;10.40;99.90
20590;DHT22;10453;50.810;12.540;2022-11-06T14:36:35;10.50;99.90
20590;DHT22;10453;50.810;12.540;2022-11-06T14:40:52;10.40;99.90
20590;DHT22;10453;50.810;12.540;2022-11-06T14:45:20;10.30;99.90
20590;DHT22;10453;50.810;12.540;2022-11-06T14:49:41;10.20;99.90
20590;DHT22;10453;50.810;12.540;2022-11-06T14:54:04;10.10;99.90
20590;DHT22;10453;50.810;12.540;2022-11-06T14:58:31;9.60;99.90
20590;DHT22;10453;50.810;12.540;2022-11-06T15:02:49;9.30;99.90
20590;DHT22;10453;50.810;12.540;2022-11-06T15:07:12;8.90;99.90
20590;DHT22;10453;50.810;12.540;2022-11-06T15:12:06;8.50;99.90
20590;DHT22;10453;50.810;12.540;2022-11-06T15:16:35;8.10;99.90
20590;DHT22;10453;50.810;12.540;2022-11-06T15:20:57;7.80;99.90
20590;DHT22;10453;50.810;12.540;2022-11-06T15:29:39;7.30;99.90
20590;DHT22;10453;50.810;12.540;2022-11-06T15:34:03;7.00;99.90
20590;DHT22;10453;50.810;12.540;2022-11-06T15:38:34;6.90;99.90
20590;DHT22;10453;50.810;12.540;2022-11-06T15:42:54;6.60;99.90
20590;DHT22;10453;50.810;12.540;2022-11-06T15:47:23;6.40;99.90
20590;DHT22;10453;50.810;12.540;2022-11-06T15:51:55;6.20;99.90
20590;DHT22;10453;50.810;12.540;2022-11-06T15:56:14;6.00;99.90
20590;DHT22;10453;50.810;12.540;2022-11-06T16:00:35;5.80;99.90
20590;DHT22;10453;50.810;12.540;2022-11-06T16:04:53;5.70;99.90
20590;DHT22;10453;50.810;12.540;2022-11-06T16:09:18;5.60;99.90
20590;DHT22;10453;50.810;12.540;2022-11-06T16:13:36;5.40;99.90
20590;DHT22;10453;50.810;12.540;2022-11-06T16:18:05;5.30;99.90
20590;DHT22;10453;50.810;12.540;2022-11-06T16:22:30;5.10;99.90
20590;DHT22;10453;50.810;12.540;2022-11-06T16:26:49;5.00;99.90
20590;DHT22;10453;50.810;12.540;2022-11-06T16:31:18;5.00;99.90
20590;DHT22;10453;50.810;12.540;2022-11-06T16:35:36;4.80;99.90
20590;DHT22;10453;50.810;12.540;2022-11-06T16:39:53;4.70;99.90
20590;DHT22;10453;50.810;12.540;2022-11-06T16:44:16;4.70;99.90
20590;DHT22;10453;50.810;12.540;2022-11-06T16:48:41;4.70;99.90
20590;DHT22;10453;50.810;12.540;2022-11-06T16:53:01;4.60;99.90
20590;DHT22;10453;50.810;12.540;2022-11-06T16:57:21;4.60;99.90
20590;DHT22;10453;50.810;12.540;2022-11-06T17:01:42;4.40;99.90
20590;DHT22;10453;50.810;12.540;2022-11-06T17:06:00;4.40;99.90
20590;DHT22;10453;50.810;12.540;2022-11-06T17:10:41;4.40;99.90
20590;DHT22;10453;50.810;12.540;2022-11-06T17:14:59;4.30;99.90
20590;DHT22;10453;50.810;12.540;2022-11-06T17:19:20;4.20;99.90
20590;DHT22;10453;50.810;12.540;2022-11-06T17:23:38;4.20;99.90
20590;DHT22;10453;50.810;12.540;2022-11-06T17:27:55;4.30;99.90
20590;DHT22;10453;50.810;12.540;2022-11-06T17:32:12;4.40;99.90
20590;DHT22;10453;50.810;12.540;2022-11-06T17:36:30;4.40;99.90
20590;DHT22;10453;50.810;12.540;2022-11-06T17:40:48;4.40;99.90
20590;DHT22;10453;50.810;12.540;2022-11-06T17:45:06;4.30;99.90
20590;DHT22;10453;50.810;12.540;2022-11-06T17:49:23;4.30;99.90
20590;DHT22;10453;50.810;12.540;2022-11-06T17:53:41;4.40;99.90
20590;DHT22;10453;50.810;12.540;2022-11-06T17:57:58;4.50;99.90
20590;DHT22;10453;50.810;12.540;2022-11-06T18:02:16;4.40;99.90
20590;DHT22;10453;50.810;12.540;2022-11-06T18:06:53;4.40;99.90
20590;DHT22;10453;50.810;12.540;2022-11-06T18:11:11;4.30;99.90
20590;DHT22;10453;50.810;12.540;2022-11-06T18:15:28;4.30;99.90
20590;DHT22;10453;50.810;12.540;2022-11-06T18:19:45;4.40;99.90
20590;DHT22;10453;50.810;12.540;2022-11-06T18:24:03;4.50;99.90
20590;DHT22;10453;50.810;12.540;2022-11-06T18:28:20;4.70;99.90
20590;DHT22;10453;50.810;12.540;2022-11-06T18:32:38;4.90;99.90
20590;DHT22;10453;50.810;12.540;2022-11-06T18:36:55;5.00;99.90
20590;DHT22;10453;50.810;12.540;2022-11-06T18:41:15;5.00;99.90
20590;DHT22;10453;50.810;12.540;2022-11-06T18:45:36;5.10;99.90
20590;DHT22;10453;50.810;12.540;2022-11-06T18:49:53;5.10;99.90
20590;DHT22;10453;50.810;12.540;2022-11-06T18:54:11;4.90;99.90
20590;DHT22;10453;50.810;12.540;2022-11-06T18:58:29;4.90;99.90
20590;DHT22;10453;50.810;12.540;2022-11-06T19:02:46;4.90;99.90
20590;DHT22;10453;50.810;12.540;2022-11-06T19:07:04;4.80;99.90
20590;DHT22;10453;50.810;12.540;2022-11-06T19:11:21;4.70;99.90
20590;DHT22;10453;50.810;12.540;2022-11-06T19:15:38;4.60;99.90
20590;DHT22;10453;50.810;12.540;2022-11-06T19:19:56;4.60;99.90
20590;DHT22;10453;50.810;12.540;2022-11-06T19:24:14;4.60;99.90
20590;DHT22;10453;50.810;12.540;2022-11-06T19:28:31;4.60;99.90
20590;DHT22;10453;50.810;12.540;2022-11-06T19:32:52;4.60;99.90
20590;DHT22;10453;50.810;12.540;2022-11-06T19:37:12;4.60;99.90
20590;DHT22;10453;50.810;12.540;2022-11-06T19:41:29;4.60;99.90
20590;DHT22;10453;50.810;12.540;2022-11-06T19:45:46;4.60;99.90
20590;DHT22;10453;50.810;12.540;2022-11-06T19:50:05;4.60;99.90
20590;DHT22;10453;50.810;12.540;2022-11-06T19:54:22;4.60;99.90
20590;DHT22;10453;50.810;12.540;2022-11-06T19:58:40;4.70;99.90
20590;DHT22;10453;50.810;12.540;2022-11-06T20:02:57;4.70;99.90
20590;DHT22;10453;50.810;12.540;2022-11-06T20:07:14;4.80;99.90
20590;DHT22;10453;50.810;12.540;2022-11-06T20:11:32;4.60;99.90
20590;DHT22;10453;50.810;12.540;2022-11-06T20:15:49;4.60;99.90
20590;DHT22;10453;50.810;12.540;2022-11-06T20:20:07;4.60;99.90
20590;DHT22;10453;50.810;12.540;2022-11-06T20:24:24;4.60;99.90
20590;DHT22;10453;50.810;12.540;2022-11-06T20:28:42;4.60;99.90
20590;DHT22;10453;50.810;12.540;2022-11-06T20:32:59;4.60;99.90
20590;DHT22;10453;50.810;12.540;2022-11-06T20:37:17;4.70;99.90
20590;DHT22;10453;50.810;12.540;2022-11-06T20:41:34;4.80;99.90
20590;DHT22;10453;50.810;12.540;2022-11-06T20:45:51;4.70;99.90
20590;DHT22;10453;50.810;12.540;2022-11-06T20:50:09;4.70;99.90
20590;DHT22;10453;50.810;12.540;2022-11-06T20:54:27;4.70;99.90
20590;DHT22;10453;50.810;12.540;2022-11-06T20:58:44;4.80;99.90
20590;DHT22;10453;50.810;12.540;2022-11-06T21:03:01;4.80;99.90
20590;DHT22;10453;50.810;12.540;2022-11-06T21:07:19;4.90;99.90
20590;DHT22;10453;50.810;12.540;2022-11-06T21:11:36;4.90;99.90
20590;DHT22;10453;50.810;12.540;2022-11-06T21:16:01;5.00;99.90
20590;DHT22;10453;50.810;12.540;2022-11-06T21:20:18;5.10;99.90
20590;DHT22;10453;50.810;12.540;2022-11-06T21:24:39;4.90;99.90
20590;DHT22;10453;50.810;12.540;2022-11-06T21:28:57;4.90;99.90
20590;DHT22;10453;50.810;12.540;2022-11-06T21:33:15;4.90;99.90
20590;DHT22;10453;50.810;12.540;2022-11-06T21:37:32;5.00;99.90
20590;DHT22;10453;50.810;12.540;2022-11-06T21:41:50;5.00;99.90
20590;DHT22;10453;50.810;12.540;2022-11-06T21:46:09;5.00;99.90
20590;DHT22;10453;50.810;12.540;2022-11-06T21:50:27;5.10;99.90
20590;DHT22;10453;50.810;12.540;2022-11-06T21:54:46;5.20;99.90
20590;DHT22;10453;50.810;12.540;2022-11-06T21:59:26;5.40;99.90
20590;DHT22;10453;50.810;12.540;2022-11-06T22:03:44;5.70;99.90
20590;DHT22;10453;50.810;12.540;2022-11-06T22:08:02;6.20;99.90
20590;DHT22;10453;50.810;12.540;2022-11-06T22:12:19;6.90;99.90
20590;DHT22;10453;50.810;12.540;2022-11-06T22:16:40;7.40;99.90
20590;DHT22;10453;50.810;12.540;2022-11-06T22:21:09;7.90;99.90
20590;DHT22;10453;50.810;12.540;2022-11-06T22:25:26;8.70;99.90
20590;DHT22;10453;50.810;12.540;2022-11-06T22:29:43;9.00;99.90
20590;DHT22;10453;50.810;12.540;2022-11-06T22:34:01;9.30;99.90
20590;DHT22;10453;50.810;12.540;2022-11-06T22:38:18;9.40;99.90
20590;DHT22;10453;50.810;12.540;2022-11-06T22:42:35;9.20;99.90
20590;DHT22;10453;50.810;12.540;2022-11-06T22:46:53;9.00;99.90
20590;DHT22;10453;50.810;12.540;2022-11-06T22:51:13;8.70;99.90
20590;DHT22;10453;50.810;12.540;2022-11-06T22:55:31;8.50;99.90
20590;DHT22;10453;50.810;12.540;2022-11-06T22:59:48;8.50;99.90
20590;DHT22;10453;50.810;12.540;2022-11-06T23:04:08;8.60;99.90
20590;DHT22;10453;50.810;12.540;2022-11-06T23:08:25;8.60;99.90
20590;DHT22;10453;50.810;12.540;2022-11-06T23:12:43;8.60;99.90
20590;DHT22;10453;50.810;12.540;2022-11-06T23:17:01;8.70;99.90
20590;DHT22;10453;50.810;12.540;2022-11-06T23:21:20;8.70;99.90
20590;DHT22;10453;50.810;12.540;2022-11-06T23:25:37;8.80;99.90
20590;DHT22;10453;50.810;12.540;2022-11-06T23:29:54;9.00;99.90
20590;DHT22;10453;50.810;12.540;2022-11-06T23:34:16;9.00;99.90
20590;DHT22;10453;50.810;12.540;2022-11-06T23:38:33;9.10;99.90
20590;DHT22;10453;50.810;12.540;2022-11-06T23:42:50;9.20;99.90
20590;DHT22;10453;50.810;12.540;2022-11-06T23:47:10;9.30;99.90
20590;DHT22;10453;50.810;12.540;2022-11-06T23:51:27;9.40;99.90
20590;DHT22;10453;50.810;12.540;2022-11-06T23:55:45;9.40;99.90
